Time;durP1;ratioP1;P1;durP2;ratioP2;P2;SDS_P1;SDS_P2;PMS_P1;PMS_P2;Temp;Humidity;BMP_temperature;BMP_pressure;BME280_temperature;BME280_humidity;BME280_pressure;Samples;Min_cycle;Max_cycle;Signal;HPM_P1;HPM_P2
2022/10/17 00:02:29;;;;;;;27.62;22.90;;;18.40;81.40;;;;;;10826497;33;20082;-76
2022/10/17 00:08:31;;;;;;;32.75;25.02;;;18.40;81.50;;;;;;10826219;33;20344;-76
2022/10/17 00:14:33;;;;;;;33.35;26.37;;;18.40;81.40;;;;;;10826008;33;20388;-76
2022/10/17 00:20:35;;;;;;;34.17;27.17;;;18.40;81.60;;;;;;10830468;27;20344;-75
2022/10/17 00:26:37;;;;;;;34.55;26.30;;;18.40;81.60;;;;;;10825847;33;20024;-76
2022/10/17 00:32:40;;;;;;;29.33;21.52;;;18.40;81.70;;;;;;10821554;33;20063;-76
2022/10/17 00:38:44;;;;;;;32.30;24.33;;;18.40;81.70;;;;;;10825545;33;20016;-76
2022/10/17 00:44:46;;;;;;;40.20;29.52;;;18.30;81.60;;;;;;10825230;33;20036;-76
2022/10/17 00:50:49;;;;;;;34.25;28.17;;;18.30;81.90;;;;;;10824092;33;20032;-76
2022/10/17 00:56:53;;;;;;;32.58;26.42;;;18.40;81.80;;;;;;10824988;33;20023;-75
2022/10/17 01:02:55;;;;;;;36.40;28.00;;;18.30;82.00;;;;;;10824881;33;20020;-76
2022/10/17 01:08:58;;;;;;;36.58;27.20;;;18.30;82.00;;;;;;10820541;33;20046;-77
2022/10/17 01:15:24;;;;;;;35.05;26.85;;;18.30;82.30;;;;;;10820541;33;20020;-76
2022/10/17 01:21:45;;;;;;;34.38;27.27;;;18.20;82.20;;;;;;10824467;33;20024;-76
2022/10/17 01:28:29;;;;;;;33.05;26.12;;;18.10;82.20;;;;;;10820152;33;20028;-76
2022/10/17 01:34:36;;;;;;;31.20;27.35;;;18.20;82.20;;;;;;10827049;32;20044;-76
2022/10/17 01:40:48;;;;;;;38.40;28.33;;;18.10;82.50;;;;;;10832252;32;20024;-77
2022/10/17 01:46:54;;;;;;;44.40;33.60;;;18.00;82.70;;;;;;10832657;32;20459;-76
2022/10/17 01:53:07;;;;;;;31.48;25.25;;;18.00;83.00;;;;;;10833335;32;20073;-76
2022/10/17 01:59:14;;;;;;;34.70;26.25;;;18.00;82.80;;;;;;10833318;32;20071;-76
2022/10/17 02:05:20;;;;;;;35.95;25.05;;;18.00;82.70;;;;;;10833135;32;20054;-76
2022/10/17 02:11:25;;;;;;;36.17;27.52;;;18.00;82.70;;;;;;10831065;32;20032;-75
2022/10/17 02:17:39;;;;;;;27.58;23.12;;;18.00;82.70;;;;;;10825436;33;20074;-76
2022/10/17 02:24:02;;;;;;;35.47;25.67;;;17.90;82.60;;;;;;10829278;33;20059;-76
2022/10/17 02:30:28;;;;;;;39.88;30.25;;;17.90;82.70;;;;;;10829302;33;20298;-76
2022/10/17 02:36:39;;;;;;;26.25;23.45;;;17.90;82.60;;;;;;10815950;33;20028;-76
2022/10/17 02:42:43;;;;;;;27.20;21.42;;;17.90;82.60;;;;;;10828782;33;20058;-76
2022/10/17 02:48:54;;;;;;;29.48;22.02;;;17.90;82.70;;;;;;10828197;32;20272;-76
2022/10/17 02:55:23;;;;;;;25.48;21.23;;;17.90;82.80;;;;;;10828576;33;20332;-76
2022/10/17 03:01:26;;;;;;;30.83;20.33;;;18.00;83.00;;;;;;10826067;33;20392;-76
2022/10/17 03:07:28;;;;;;;35.70;27.05;;;17.90;82.80;;;;;;10828243;33;20024;-78
2022/10/17 03:13:31;;;;;;;33.55;26.23;;;17.90;83.00;;;;;;10827955;33;20027;-76
2022/10/17 03:19:34;;;;;;;27.70;23.08;;;17.80;83.20;;;;;;10827856;33;20336;-76
2022/10/17 03:25:36;;;;;;;32.05;21.75;;;17.80;83.10;;;;;;10827677;33;20055;-78
2022/10/17 03:31:39;;;;;;;32.05;22.77;;;17.80;83.20;;;;;;10827522;33;20055;-77
2022/10/17 03:37:42;;;;;;;28.85;18.50;;;17.70;83.50;;;;;;10827291;33;20035;-76
2022/10/17 03:43:44;;;;;;;35.00;22.98;;;17.70;83.70;;;;;;10827219;33;20066;-77
2022/10/17 03:49:46;;;;;;;33.47;22.10;;;17.70;83.40;;;;;;10827050;33;20329;-77
2022/10/17 03:55:49;;;;;;;38.53;21.10;;;17.70;83.30;;;;;;10825962;32;20055;-76
2022/10/17 04:01:52;;;;;;;33.10;25.20;;;17.70;83.50;;;;;;10826643;33;20032;-76
2022/10/17 04:07:55;;;;;;;42.38;28.67;;;17.70;83.50;;;;;;10826493;33;20328;-76
2022/10/17 04:13:59;;;;;;;29.48;21.67;;;17.60;83.50;;;;;;10826355;33;20054;-76
2022/10/17 04:20:03;;;;;;;40.10;29.63;;;17.60;83.40;;;;;;10813735;32;20017;-76
2022/10/17 04:26:06;;;;;;;35.53;26.83;;;17.60;83.30;;;;;;10827767;33;20028;-76
2022/10/17 04:32:08;;;;;;;37.67;26.83;;;17.60;83.50;;;;;;10812789;33;20024;-76
2022/10/17 04:38:13;;;;;;;31.83;25.98;;;17.50;83.40;;;;;;10812659;33;20108;-76
2022/10/17 04:44:15;;;;;;;27.48;19.75;;;17.50;83.40;;;;;;10825418;33;20036;-76
2022/10/17 04:50:18;;;;;;;24.15;19.95;;;17.40;83.30;;;;;;10821118;33;20054;-76
2022/10/17 04:56:35;;;;;;;29.75;22.02;;;17.40;83.30;;;;;;10824970;32;20054;-76
2022/10/17 05:02:37;;;;;;;26.77;20.10;;;17.40;83.30;;;;;;10824982;33;20322;-76
2022/10/17 05:08:40;;;;;;;24.42;21.17;;;17.30;83.20;;;;;;10824771;33;20375;-75
2022/10/17 05:14:42;;;;;;;26.65;20.17;;;17.30;83.30;;;;;;10824816;33;20028;-77
2022/10/17 05:20:44;;;;;;;26.08;20.27;;;17.30;83.30;;;;;;10824539;32;20032;-78
2022/10/17 05:26:52;;;;;;;21.23;17.40;;;17.20;83.20;;;;;;10824397;33;20040;-77
2022/10/17 05:32:55;;;;;;;22.00;16.30;;;17.10;83.30;;;;;;10824189;33;20139;-78
2022/10/17 05:38:58;;;;;;;22.37;18.60;;;17.10;83.30;;;;;;10824014;33;20017;-78
2022/10/17 05:45:01;;;;;;;28.75;24.70;;;17.10;83.30;;;;;;10823830;33;20316;-78
2022/10/17 05:51:07;;;;;;;31.30;21.50;;;17.20;83.60;;;;;;10806559;33;20028;-77
2022/10/17 05:57:10;;;;;;;31.45;22.15;;;17.10;83.60;;;;;;10823533;33;20086;-77
2022/10/17 06:03:13;;;;;;;24.23;18.25;;;17.10;83.60;;;;;;10823482;33;20020;-78
2022/10/17 06:09:15;;;;;;;27.65;22.77;;;17.00;83.50;;;;;;10809410;32;20450;-78
2022/10/17 06:15:23;;;;;;;25.88;18.75;;;17.00;83.40;;;;;;10787649;33;20021;-77
2022/10/17 06:21:26;;;;;;;26.10;19.23;;;17.00;83.40;;;;;;10789404;33;20024;-76
2022/10/17 06:27:29;;;;;;;26.45;17.15;;;16.90;83.50;;;;;;10788661;33;20097;-75
2022/10/17 06:33:31;;;;;;;28.20;21.77;;;16.80;83.40;;;;;;10792339;33;20055;-76
2022/10/17 06:39:34;;;;;;;34.08;23.58;;;16.80;83.50;;;;;;10792423;33;20035;-77
2022/10/17 06:45:40;;;;;;;25.52;19.25;;;16.80;83.40;;;;;;10792253;33;20025;-77
2022/10/17 06:51:42;;;;;;;35.10;21.62;;;16.90;83.30;;;;;;10787780;33;20024;-76
2022/10/17 06:57:44;;;;;;;32.00;24.23;;;16.90;83.20;;;;;;10787715;33;20028;-75
2022/10/17 07:03:49;;;;;;;26.00;23.12;;;16.90;83.30;;;;;;10791671;33;20043;-75
2022/10/17 07:09:52;;;;;;;32.70;24.65;;;16.80;83.20;;;;;;10791400;33;20132;-73
2022/10/17 07:16:00;;;;;;;49.50;37.42;;;16.80;83.00;;;;;;10789664;33;20020;-75
2022/10/17 07:22:03;;;;;;;32.70;26.20;;;16.70;83.00;;;;;;10789560;33;20504;-77
2022/10/17 07:28:19;;;;;;;35.25;27.95;;;16.70;83.00;;;;;;10790918;33;20038;-76
2022/10/17 07:34:26;;;;;;;35.75;25.02;;;16.80;82.90;;;;;;10790488;33;20059;-76
2022/10/17 07:40:28;;;;;;;33.28;25.10;;;17.00;82.90;;;;;;10786265;32;20043;-76
2022/10/17 07:46:31;;;;;;;28.00;22.08;;;17.10;82.80;;;;;;10789763;33;20325;-77
2022/10/17 07:52:34;;;;;;;35.53;24.33;;;17.30;82.70;;;;;;10789489;33;20016;-75
2022/10/17 07:58:36;;;;;;;33.38;25.05;;;17.30;82.60;;;;;;10772828;33;20052;-76
2022/10/17 08:04:39;;;;;;;33.08;24.90;;;17.40;82.60;;;;;;10839360;32;20035;-78
2022/10/17 08:10:41;;;;;;;39.75;29.27;;;17.50;82.60;;;;;;10789527;33;20333;-77
2022/10/17 08:16:43;;;;;;;29.60;23.73;;;17.60;82.50;;;;;;10789341;33;20020;-76
2022/10/17 08:22:51;;;;;;;30.95;23.23;;;17.70;82.40;;;;;;10799246;27;314540;-76
2022/10/17 08:29:15;;;;;;;46.20;35.83;;;17.80;82.40;;;;;;10824478;33;20051;-74
2022/10/17 08:35:17;;;;;;;36.28;27.20;;;17.90;82.20;;;;;;10824941;33;20032;-75
2022/10/17 08:41:39;;;;;;;55.78;44.05;;;18.00;82.20;;;;;;10824221;32;20042;-75
2022/10/17 08:47:45;;;;;;;45.35;36.55;;;18.00;82.30;;;;;;10825436;33;20038;-75
2022/10/17 08:54:21;;;;;;;55.40;39.78;;;18.10;82.20;;;;;;10824597;33;20323;-75
2022/10/17 09:00:24;;;;;;;36.67;28.70;;;18.20;82.10;;;;;;10824164;33;20023;-76
2022/10/17 09:06:31;;;;;;;34.42;25.77;;;18.40;81.90;;;;;;10820052;33;20027;-75
2022/10/17 09:13:10;;;;;;;44.15;31.62;;;18.50;81.70;;;;;;10823608;33;20024;-76
2022/10/17 09:19:20;;;;;;;50.95;39.28;;;18.60;81.50;;;;;;10823486;33;20404;-77
2022/10/17 09:25:22;;;;;;;61.53;46.50;;;18.70;81.60;;;;;;10810559;32;20220;-74
2022/10/17 09:31:29;;;;;;;36.47;28.70;;;18.80;81.50;;;;;;10822164;33;20418;-75
2022/10/17 09:37:32;;;;;;;44.05;34.70;;;19.00;81.20;;;;;;10809760;33;20024;-75
2022/10/17 09:43:34;;;;;;;42.25;35.17;;;19.10;81.00;;;;;;10818948;33;20062;-74
2022/10/17 09:49:41;;;;;;;45.65;34.63;;;19.20;80.70;;;;;;10810152;33;20028;-74
2022/10/17 09:55:55;;;;;;;37.50;27.67;;;19.30;80.40;;;;;;10825171;32;20404;-75
2022/10/17 10:02:20;;;;;;;48.05;32.03;;;19.50;80.20;;;;;;10816289;33;20024;-76
2022/10/17 10:08:26;;;;;;;59.28;45.15;;;19.70;80.00;;;;;;10827314;33;20032;-73
2022/10/17 10:14:32;;;;;;;46.80;34.80;;;19.80;79.60;;;;;;10829363;33;20028;-76
2022/10/17 10:20:36;;;;;;;44.38;37.08;;;19.80;79.20;;;;;;10815291;32;20032;-76
2022/10/17 10:26:47;;;;;;;69.95;50.22;;;20.00;79.00;;;;;;10828721;33;20400;-74
2022/10/17 10:32:50;;;;;;;62.92;45.40;;;20.20;78.70;;;;;;10816003;33;20028;-74
2022/10/17 10:39:24;;;;;;;46.40;36.80;;;20.20;78.00;;;;;;10814052;33;20065;-75
2022/10/17 10:45:47;;;;;;;43.42;30.85;;;20.40;77.80;;;;;;10828696;33;20032;-74
2022/10/17 10:51:49;;;;;;;39.50;29.27;;;20.60;77.40;;;;;;10837633;32;20024;-76
2022/10/17 10:57:57;;;;;;;36.95;32.15;;;20.80;77.10;;;;;;10865046;32;20344;-76
2022/10/17 11:04:08;;;;;;;55.30;46.47;;;21.00;76.50;;;;;;10865205;32;20038;-73
2022/10/17 11:10:36;;;;;;;33.90;27.33;;;21.20;76.10;;;;;;10864428;32;20051;-74
2022/10/17 11:16:50;;;;;;;45.03;30.33;;;21.30;75.70;;;;;;10852410;32;20062;-77
2022/10/17 11:23:09;;;;;;;35.40;30.27;;;21.50;75.40;;;;;;10860145;32;20383;-72
2022/10/17 11:29:12;;;;;;;;;;;21.80;74.80;;;;;;10863762;32;20020;-74
2022/10/17 11:35:23;;;;;;;44.03;34.15;;;21.80;74.90;;;;;;10864004;32;19927;-73
2022/10/17 11:41:46;;;;;;;37.20;30.40;;;21.80;74.30;;;;;;10861405;32;20046;-73
2022/10/17 11:48:26;;;;;;;43.83;35.17;;;21.80;74.10;;;;;;10826439;33;20332;-74
2022/10/17 11:54:48;;;;;;;36.92;27.27;;;21.90;73.80;;;;;;10827241;32;20434;-73
2022/10/17 12:01:11;;;;;;;50.10;41.40;;;22.00;73.80;;;;;;10827324;32;20035;-73
2022/10/17 12:07:37;;;;;;;35.25;27.30;;;22.00;73.50;;;;;;10825241;32;20051;-75
2022/10/17 12:13:50;;;;;;;30.15;23.20;;;22.00;73.40;;;;;;10752015;33;20033;-73
2022/10/17 12:19:52;;;;;;;32.92;26.23;;;22.00;73.00;;;;;;10751380;32;20024;-74
2022/10/17 12:26:00;;;;;;;46.25;27.15;;;22.00;73.00;;;;;;10767101;32;20031;-72
2022/10/17 12:32:12;;;;;;;42.13;28.63;;;22.00;72.80;;;;;;10860671;32;20053;-73
2022/10/17 12:38:16;;;;;;;32.38;26.20;;;22.00;72.60;;;;;;10852269;32;20054;-73
2022/10/17 12:44:22;;;;;;;54.42;44.03;;;22.10;72.50;;;;;;10864504;32;20043;-73
2022/10/17 12:51:08;;;;;;;29.77;22.75;;;22.10;72.10;;;;;;10832533;32;20058;-73
2022/10/17 12:57:18;;;;;;;33.25;25.52;;;22.20;72.00;;;;;;10818593;32;20067;-73
2022/10/17 13:03:27;;;;;;;36.42;26.25;;;22.20;71.80;;;;;;10825307;32;20052;-74
2022/10/17 13:09:41;;;;;;;50.05;34.25;;;22.30;71.80;;;;;;10813128;32;20019;-72
2022/10/17 13:15:49;;;;;;;32.92;24.95;;;22.30;71.40;;;;;;10822980;32;20035;-75
2022/10/17 13:21:51;;;;;;;34.10;29.00;;;22.30;71.60;;;;;;10825838;32;20055;-73
2022/10/17 13:28:05;;;;;;;29.65;21.83;;;22.30;71.60;;;;;;10826625;32;20139;-75
2022/10/17 13:34:23;;;;;;;26.62;20.73;;;22.40;71.20;;;;;;10837501;32;20058;-75
2022/10/17 13:40:29;;;;;;;28.08;19.90;;;22.40;71.20;;;;;;10833907;33;20008;-76
2022/10/17 13:46:33;;;;;;;27.27;19.83;;;22.40;71.00;;;;;;10833344;33;20387;-74
2022/10/17 13:52:35;;;;;;;25.55;19.73;;;22.40;70.60;;;;;;10831808;33;20315;-73
2022/10/17 13:58:44;;;;;;;27.67;22.42;;;22.50;70.60;;;;;;10884199;32;20116;-74
2022/10/17 14:04:46;;;;;;;44.22;30.80;;;22.60;70.30;;;;;;10822557;33;20016;-74
2022/10/17 14:10:49;;;;;;;37.47;29.40;;;22.70;70.20;;;;;;10831241;33;20046;-73
2022/10/17 14:16:51;;;;;;;26.60;21.92;;;22.70;69.90;;;;;;10831138;33;20055;-76
2022/10/17 14:23:22;;;;;;;40.92;29.77;;;22.70;70.00;;;;;;10812929;33;20051;-76
2022/10/17 14:29:26;;;;;;;30.48;21.08;;;22.70;69.90;;;;;;10789532;32;20035;-77
2022/10/17 14:35:29;;;;;;;25.27;19.87;;;22.80;70.00;;;;;;10785823;33;20043;-74
2022/10/17 14:41:34;;;;;;;25.15;19.62;;;22.80;70.00;;;;;;10794646;33;20060;-76
2022/10/17 14:47:36;;;;;;;23.55;19.10;;;22.80;69.90;;;;;;10795788;32;20071;-75
2022/10/17 14:53:39;;;;;;;22.20;16.90;;;22.80;69.80;;;;;;10791994;33;20051;-76
2022/10/17 14:59:42;;;;;;;25.95;18.92;;;22.70;69.80;;;;;;10791601;33;20063;-74
2022/10/17 15:05:45;;;;;;;23.77;18.20;;;22.80;69.70;;;;;;10791664;33;20377;-76
2022/10/17 15:11:47;;;;;;;20.55;15.60;;;22.80;69.70;;;;;;10787049;33;20032;-76
2022/10/17 15:18:13;;;;;;;20.15;15.45;;;23.50;68.80;;;;;;10789409;33;20055;-76
2022/10/17 15:24:15;;;;;;;16.58;14.00;;;24.20;67.50;;;;;;10790975;33;20521;-77
2022/10/17 15:30:31;;;;;;;20.58;14.23;;;24.80;66.80;;;;;;10786872;33;20028;-76
2022/10/17 15:36:49;;;;;;;18.23;14.77;;;24.90;66.50;;;;;;10786580;33;20048;-76
2022/10/17 15:42:51;;;;;;;18.63;13.60;;;24.90;66.80;;;;;;10786549;33;20055;-77
2022/10/17 15:48:55;;;;;;;19.10;13.25;;;24.60;67.70;;;;;;10803992;32;20032;-77
2022/10/17 15:54:57;;;;;;;16.50;11.82;;;23.80;69.30;;;;;;10825953;32;20058;-77
2022/10/17 16:01:23;;;;;;;23.27;12.95;;;23.20;70.50;;;;;;10826862;33;20028;-77
2022/10/17 16:07:26;;;;;;;15.00;11.80;;;22.80;71.20;;;;;;10826757;33;20067;-77
2022/10/17 16:13:28;;;;;;;16.67;12.20;;;22.40;71.80;;;;;;10825354;33;20051;-76
2022/10/17 16:19:30;;;;;;;20.58;14.50;;;22.20;72.20;;;;;;10826319;33;20054;-76
2022/10/17 16:25:33;;;;;;;24.23;15.02;;;21.90;72.40;;;;;;10827642;27;20044;-76
2022/10/17 16:31:42;;;;;;;16.95;13.60;;;21.80;72.70;;;;;;10826059;33;20043;-76
2022/10/17 16:37:44;;;;;;;15.32;11.82;;;21.60;73.00;;;;;;10821697;33;20040;-77
2022/10/17 16:43:47;;;;;;;21.35;15.85;;;21.50;73.20;;;;;;10825520;33;20059;-76
2022/10/17 16:50:19;;;;;;;16.27;12.82;;;21.30;73.30;;;;;;10809128;33;20046;-77
2022/10/17 16:56:28;;;;;;;18.08;11.90;;;21.20;73.40;;;;;;10821121;33;20432;-77
2022/10/17 17:02:31;;;;;;;21.00;14.65;;;21.10;73.60;;;;;;10824486;32;20028;-77
2022/10/17 17:08:38;;;;;;;17.42;11.95;;;20.90;73.80;;;;;;10809113;33;20313;-77
2022/10/17 17:14:40;;;;;;;18.98;13.85;;;20.80;74.00;;;;;;10824946;33;20024;-77
2022/10/17 17:20:42;;;;;;;23.45;14.70;;;20.80;74.20;;;;;;10820555;32;20059;-77
2022/10/17 17:26:45;;;;;;;16.67;13.18;;;20.70;74.20;;;;;;10824490;33;20046;-77
2022/10/17 17:32:48;;;;;;;33.80;16.35;;;20.70;74.40;;;;;;10824446;33;20029;-77
2022/10/17 17:38:58;;;;;;;18.45;15.88;;;20.60;74.50;;;;;;10827431;33;20024;-76
2022/10/17 17:45:00;;;;;;;23.65;19.33;;;20.50;74.60;;;;;;10824987;33;20062;-77
2022/10/17 17:51:04;;;;;;;20.48;14.68;;;20.40;74.80;;;;;;10823925;33;20020;-77
2022/10/17 17:57:07;;;;;;;23.55;16.42;;;20.30;74.90;;;;;;10822580;33;20032;-77
2022/10/17 18:03:12;;;;;;;26.33;17.95;;;20.30;75.10;;;;;;10810618;33;20035;-77
2022/10/17 18:09:16;;;;;;;24.90;16.85;;;20.30;75.20;;;;;;10823480;33;20032;-77
2022/10/17 18:15:18;;;;;;;27.30;15.57;;;20.20;75.40;;;;;;10823696;32;20029;-77
2022/10/17 18:21:21;;;;;;;23.42;17.92;;;20.20;75.60;;;;;;10816633;32;20321;-77
2022/10/17 18:27:23;;;;;;;37.67;20.50;;;20.10;75.70;;;;;;10829661;33;20293;-77
2022/10/17 18:33:25;;;;;;;30.73;18.65;;;20.00;75.80;;;;;;10829340;33;20426;-77
2022/10/17 18:39:27;;;;;;;35.08;24.05;;;20.00;75.90;;;;;;10829257;33;20408;-77
2022/10/17 18:45:31;;;;;;;35.95;27.05;;;20.00;76.00;;;;;;10828940;33;20054;-78
2022/10/17 18:51:33;;;;;;;29.83;20.10;;;20.00;76.20;;;;;;10828922;33;20008;-77
2022/10/17 18:58:25;;;;;;;29.83;18.70;;;19.90;76.20;;;;;;10815851;33;20336;-77
2022/10/17 19:04:27;;;;;;;30.35;21.17;;;19.90;76.40;;;;;;10827754;33;20031;-77
2022/10/17 19:10:30;;;;;;;34.25;22.67;;;19.90;76.60;;;;;;10815137;32;20028;-72
2022/10/17 19:16:37;;;;;;;31.95;24.37;;;19.80;76.60;;;;;;10828120;33;20020;-72
2022/10/17 19:22:59;;;;;;;33.72;23.83;;;19.80;76.80;;;;;;10828019;33;20340;-72
2022/10/17 19:29:02;;;;;;;36.00;21.30;;;19.70;77.00;;;;;;10814482;32;20414;-72
2022/10/17 19:35:05;;;;;;;34.33;22.42;;;19.70;77.10;;;;;;10823241;33;20375;-72
2022/10/17 19:41:10;;;;;;;29.10;23.40;;;19.60;77.20;;;;;;10827362;33;20031;-72
2022/10/17 19:47:12;;;;;;;28.23;21.92;;;19.60;77.30;;;;;;10799329;32;20474;-72
2022/10/17 19:53:33;;;;;;;28.35;21.37;;;19.50;77.40;;;;;;10790141;33;20067;-72
2022/10/17 19:59:59;;;;;;;28.90;21.58;;;19.50;77.50;;;;;;10806114;33;20435;-72
2022/10/17 20:06:02;;;;;;;27.70;23.85;;;19.40;77.60;;;;;;10818641;33;20408;-72
2022/10/17 20:12:04;;;;;;;34.60;21.20;;;19.40;78.00;;;;;;10823084;33;20028;-72
2022/10/17 20:18:08;;;;;;;29.37;21.50;;;19.30;78.30;;;;;;10820094;33;20297;-72
2022/10/17 20:24:17;;;;;;;30.10;22.65;;;19.30;78.30;;;;;;10820799;32;20348;-72
2022/10/17 20:30:19;;;;;;;31.60;24.85;;;19.30;78.40;;;;;;10824366;33;20032;-72
2022/10/17 20:36:23;;;;;;;32.67;23.23;;;19.20;78.50;;;;;;10822730;33;20036;-72
2022/10/17 20:42:26;;;;;;;28.35;21.42;;;19.20;78.50;;;;;;10823527;32;20035;-72
2022/10/17 20:48:28;;;;;;;28.65;21.92;;;19.10;78.50;;;;;;10824493;33;20070;-72
2022/10/17 20:54:30;;;;;;;24.05;19.58;;;19.00;78.60;;;;;;10825272;32;20028;-72
2022/10/17 21:00:32;;;;;;;26.87;21.58;;;18.90;78.70;;;;;;10821284;33;20059;-72
2022/10/17 21:06:35;;;;;;;27.85;22.05;;;18.80;78.80;;;;;;10824997;33;20059;-73
2022/10/17 21:12:58;;;;;;;26.27;18.95;;;18.80;79.00;;;;;;10824945;33;20032;-72
2022/10/17 21:19:01;;;;;;;25.80;18.75;;;18.80;78.90;;;;;;10811794;33;20050;-73
2022/10/17 21:25:03;;;;;;;28.48;21.15;;;18.80;79.00;;;;;;10820453;33;20040;-73
2022/10/17 21:31:26;;;;;;;28.85;21.30;;;18.80;79.00;;;;;;10807259;33;20054;-73
2022/10/17 21:37:28;;;;;;;29.02;22.13;;;18.70;79.20;;;;;;10811115;33;20039;-73
2022/10/17 21:43:30;;;;;;;23.55;16.87;;;18.70;79.30;;;;;;10820119;33;20024;-73
2022/10/17 21:49:41;;;;;;;25.70;21.65;;;18.70;79.50;;;;;;10875726;32;20067;-73
2022/10/17 21:55:43;;;;;;;41.97;29.95;;;18.60;79.80;;;;;;10830568;33;20059;-73
2022/10/17 22:01:45;;;;;;;25.23;20.05;;;18.60;80.00;;;;;;10827310;33;20032;-73
2022/10/17 22:07:47;;;;;;;30.98;26.20;;;18.60;80.00;;;;;;10830176;33;20019;-73
2022/10/17 22:14:17;;;;;;;35.83;25.33;;;18.50;80.10;;;;;;10825823;33;20427;-73
2022/10/17 22:20:19;;;;;;;;;;;18.50;80.00;;;;;;10827931;32;20313;-73
2022/10/17 22:26:21;;;;;;;28.45;20.08;;;18.40;80.20;;;;;;10829734;33;19927;-72
2022/10/17 22:32:23;;;;;;;23.17;20.70;;;18.30;80.20;;;;;;10825511;33;20551;-73
2022/10/17 22:38:25;;;;;;;29.95;22.48;;;18.30;80.20;;;;;;10816201;33;20024;-72
2022/10/17 22:44:27;;;;;;;20.00;16.60;;;18.20;80.30;;;;;;10827094;33;20032;-73
2022/10/17 22:50:48;;;;;;;20.33;18.20;;;18.20;80.50;;;;;;10829089;33;20392;-73
2022/10/17 22:56:50;;;;;;;18.33;15.63;;;18.10;80.30;;;;;;10824670;33;20032;-72
2022/10/17 23:02:53;;;;;;;18.80;15.02;;;18.00;80.40;;;;;;10823999;33;20042;-72
2022/10/17 23:08:55;;;;;;;20.98;18.33;;;17.90;80.50;;;;;;10815270;33;20047;-73
2022/10/17 23:14:57;;;;;;;21.27;16.55;;;17.80;80.60;;;;;;10828167;33;20058;-72
2022/10/17 23:20:59;;;;;;;17.58;14.30;;;17.90;80.50;;;;;;10828220;32;20055;-72
2022/10/17 23:27:01;;;;;;;18.02;15.48;;;17.80;80.60;;;;;;10829043;32;20320;-72
2022/10/17 23:33:04;;;;;;;21.05;15.63;;;17.80;80.60;;;;;;10828987;33;20473;-73
2022/10/17 23:39:06;;;;;;;18.08;13.57;;;17.80;80.80;;;;;;10826331;33;20028;-72
2022/10/17 23:45:08;;;;;;;17.80;15.90;;;17.80;80.70;;;;;;10823356;33;20032;-72
2022/10/17 23:51:10;;;;;;;18.70;15.98;;;17.80;80.70;;;;;;10827178;33;20020;-73
2022/10/17 23:57:12;;;;;;;21.05;17.27;;;17.80;80.70;;;;;;10826942;33;20078;-72
